createdAt,value
2017-06-15T00:00:01.602Z,12
2017-06-15T00:01:13.518Z,16
2017-06-15T00:02:25.924Z,12
2017-06-15T00:03:38.821Z,12
2017-06-15T00:04:51.710Z,12
2017-06-15T00:06:04.602Z,12
2017-06-15T00:07:16.514Z,12
2017-06-15T00:08:29.409Z,12
2017-06-15T00:09:41.814Z,12
2017-06-15T00:10:54.704Z,12
2017-06-15T00:12:07.598Z,12
2017-06-15T00:13:20.004Z,12
2017-06-15T00:14:33.097Z,12
2017-06-15T00:15:45.989Z,12
2017-06-15T00:16:57.907Z,12
2017-06-15T00:18:10.311Z,12
2017-06-15T00:19:23.204Z,4
2017-06-15T00:20:36.098Z,4
2017-06-15T00:21:49.020Z,4
2017-06-15T00:23:01.951Z,12
2017-06-15T00:24:14.356Z,12
2017-06-15T00:25:27.250Z,16
2017-06-15T00:26:40.144Z,12
2017-06-15T00:27:53.052Z,12
2017-06-15T00:29:05.966Z,12
2017-06-15T00:30:18.876Z,12
2017-06-15T00:31:31.788Z,12
2017-06-15T00:32:44.211Z,12
2017-06-15T00:33:57.123Z,8
2017-06-15T00:35:10.040Z,16
2017-06-15T00:36:23.149Z,12
2017-06-15T00:37:36.062Z,4
2017-06-15T00:38:48.975Z,12
2017-06-15T00:40:01.886Z,12
2017-06-15T00:41:14.310Z,12
2017-06-15T00:42:27.423Z,12
2017-06-15T00:43:40.334Z,16
2017-06-15T00:44:52.757Z,8
2017-06-15T00:46:05.671Z,4
2017-06-15T00:47:18.091Z,4
2017-06-15T00:48:31.013Z,12
2017-06-15T00:49:43.434Z,12
2017-06-15T00:50:56.347Z,12
2017-06-15T00:52:09.259Z,12
2017-06-15T00:53:22.372Z,12
2017-06-15T00:54:34.795Z,12
2017-06-15T00:55:47.710Z,4
2017-06-15T00:57:00.133Z,12
2017-06-15T00:58:12.559Z,12
2017-06-15T00:59:25.474Z,12
2017-06-15T01:00:38.385Z,12
2017-06-15T01:01:50.812Z,12
2017-06-15T01:03:03.723Z,12
2017-06-15T01:04:16.837Z,12
2017-06-15T01:05:29.744Z,12
2017-06-15T01:06:42.166Z,12
2017-06-15T01:07:55.081Z,12
2017-06-15T01:09:08.001Z,12
2017-06-15T01:10:20.915Z,12
2017-06-15T01:11:33.830Z,12
2017-06-15T01:12:46.836Z,12
2017-06-15T01:13:59.887Z,12
2017-06-15T01:15:12.143Z,12
2017-06-15T01:16:24.698Z,12
2017-06-15T01:17:37.756Z,12
2017-06-15T01:18:50.820Z,12
2017-06-15T01:20:04.119Z,12
2017-06-15T01:21:16.672Z,12
2017-06-15T01:22:29.230Z,12
2017-06-15T01:23:42.283Z,12
2017-06-15T01:24:55.377Z,12
2017-06-15T01:26:08.634Z,12
2017-06-15T01:27:21.685Z,12
2017-06-15T01:28:34.736Z,12
2017-06-15T01:29:47.790Z,12
2017-06-15T01:31:01.069Z,12
2017-06-15T01:32:14.124Z,12
2017-06-15T01:33:27.179Z,16
2017-06-15T01:34:39.740Z,12
2017-06-15T01:35:52.796Z,12
2017-06-15T01:37:05.851Z,12
2017-06-15T01:38:18.916Z,12
2017-06-15T01:39:31.971Z,12
2017-06-15T01:40:44.023Z,8
2017-06-15T01:41:56.775Z,12
2017-06-15T01:43:09.827Z,12
2017-06-15T01:44:22.878Z,12
2017-06-15T01:45:35.932Z,12
2017-06-15T01:46:48.988Z,12
2017-06-15T01:48:02.048Z,12
2017-06-15T01:49:15.107Z,12
2017-06-15T01:50:28.165Z,12
2017-06-15T01:51:41.217Z,12
2017-06-15T01:52:53.773Z,12
2017-06-15T01:54:06.825Z,4
2017-06-15T01:55:19.880Z,12
2017-06-15T01:56:33.134Z,12
2017-06-15T01:57:46.497Z,12
2017-06-15T01:58:59.862Z,12
2017-06-15T02:00:12.698Z,12
2017-06-15T02:01:25.412Z,12
2017-06-15T02:02:38.464Z,12
2017-06-15T02:03:51.719Z,12
2017-06-15T02:05:04.780Z,12
2017-06-15T02:06:17.836Z,12
2017-06-15T02:07:30.391Z,12
2017-06-15T02:08:43.450Z,12
2017-06-15T02:09:56.008Z,12
2017-06-15T02:11:09.061Z,12
2017-06-15T02:12:22.115Z,12
2017-06-15T02:13:34.666Z,12
2017-06-15T02:14:47.922Z,12
2017-06-15T02:16:00.976Z,12
2017-06-15T02:17:14.035Z,12
2017-06-15T02:18:27.090Z,4
2017-06-15T02:19:40.306Z,12
2017-06-15T02:20:53.217Z,12
2017-06-15T02:22:06.128Z,12
2017-06-15T02:23:19.038Z,12
2017-06-15T02:24:31.458Z,12
2017-06-15T02:25:44.370Z,12
2017-06-15T02:26:57.304Z,12
2017-06-15T02:28:10.216Z,12
2017-06-15T02:29:23.130Z,12
2017-06-15T02:30:36.041Z,12
2017-06-15T02:31:49.156Z,12
2017-06-15T02:33:02.070Z,12
2017-06-15T02:34:14.495Z,12
2017-06-15T02:35:27.406Z,8
2017-06-15T02:36:40.521Z,12
2017-06-15T02:37:52.948Z,12
2017-06-15T02:39:05.858Z,12
2017-06-15T02:40:18.774Z,12
2017-06-15T02:41:31.700Z,12
2017-06-15T02:42:44.619Z,12
2017-06-15T02:43:57.532Z,12
2017-06-15T02:45:09.978Z,12
2017-06-15T02:46:22.885Z,4
2017-06-15T02:47:35.799Z,12
2017-06-15T02:48:48.711Z,12
2017-06-15T02:50:01.622Z,12
2017-06-15T02:51:14.530Z,12
2017-06-15T02:52:27.640Z,12
2017-06-15T02:53:40.550Z,12
2017-06-15T02:54:53.464Z,12
2017-06-15T02:56:06.374Z,12
2017-06-15T02:57:19.289Z,12
2017-06-15T02:58:32.202Z,12
2017-06-15T02:59:45.113Z,12
2017-06-15T03:00:58.033Z,12
2017-06-15T03:02:10.455Z,12
2017-06-15T03:03:23.370Z,12
2017-06-15T03:04:36.283Z,12
2017-06-15T03:05:49.194Z,12
2017-06-15T03:07:02.112Z,12
2017-06-15T03:08:14.533Z,12
2017-06-15T03:09:27.443Z,12
2017-06-15T03:10:40.357Z,12
2017-06-15T03:11:53.267Z,12
2017-06-15T03:13:06.182Z,12
2017-06-15T03:14:19.294Z,4
2017-06-15T03:15:32.204Z,12
2017-06-15T03:16:45.117Z,12
2017-06-15T03:17:58.028Z,12
2017-06-15T03:19:10.937Z,12
2017-06-15T03:20:23.556Z,12
2017-06-15T03:21:36.470Z,12
2017-06-15T03:22:48.894Z,12
2017-06-15T03:24:01.807Z,12
2017-06-15T03:25:14.229Z,12
2017-06-15T03:26:27.140Z,12
2017-06-15T03:27:40.039Z,12
2017-06-15T03:28:52.932Z,4
2017-06-15T03:30:05.341Z,12
2017-06-15T03:31:17.940Z,12
2017-06-15T03:32:30.835Z,12
2017-06-15T03:33:43.727Z,12
2017-06-15T03:34:56.623Z,12
2017-06-15T03:36:09.030Z,12
2017-06-15T03:37:21.635Z,12
2017-06-15T03:38:34.530Z,12
2017-06-15T03:39:47.418Z,8
2017-06-15T03:41:00.308Z,12
2017-06-15T03:42:13.197Z,12
2017-06-15T03:43:26.088Z,12
2017-06-15T03:44:38.489Z,12
2017-06-15T03:45:50.893Z,8
2017-06-15T03:47:03.786Z,12
2017-06-15T03:48:16.875Z,12
2017-06-15T03:49:29.765Z,12
2017-06-15T03:50:42.166Z,8
2017-06-15T03:51:55.061Z,12
2017-06-15T03:53:07.463Z,12
2017-06-15T03:54:19.863Z,8
2017-06-15T03:55:32.759Z,12
2017-06-15T03:56:45.159Z,8
2017-06-15T03:57:58.050Z,12
2017-06-15T03:59:11.145Z,8
2017-06-15T04:00:24.040Z,12
2017-06-15T04:01:36.930Z,8
2017-06-15T04:02:49.355Z,8
2017-06-15T04:04:01.764Z,12
2017-06-15T04:05:14.662Z,12
2017-06-15T04:06:27.559Z,12
2017-06-15T04:07:40.456Z,4
2017-06-15T04:08:53.346Z,12
2017-06-15T04:10:05.749Z,12
2017-06-15T04:11:18.643Z,12
2017-06-15T04:12:31.550Z,12
2017-06-15T04:13:44.467Z,12
2017-06-15T04:14:57.382Z,12
2017-06-15T04:16:10.299Z,12
2017-06-15T04:17:23.209Z,12
2017-06-15T04:18:35.627Z,12
2017-06-15T04:19:48.534Z,12
2017-06-15T04:21:01.450Z,12
2017-06-15T04:22:14.363Z,12
2017-06-15T04:23:26.794Z,12
2017-06-15T04:24:39.706Z,12
2017-06-15T04:25:52.823Z,12
2017-06-15T04:27:05.735Z,12
2017-06-15T04:28:18.155Z,12
2017-06-15T04:29:31.084Z,12
2017-06-15T04:30:43.994Z,12
2017-06-15T04:31:56.417Z,12
2017-06-15T04:33:09.331Z,12
2017-06-15T04:34:22.241Z,12
2017-06-15T04:35:35.155Z,4
2017-06-15T04:36:48.267Z,12
2017-06-15T04:38:01.177Z,12
2017-06-15T04:39:14.087Z,12
2017-06-15T04:40:26.506Z,12
2017-06-15T04:41:39.414Z,12
2017-06-15T04:42:52.527Z,12
2017-06-15T04:44:05.476Z,12
2017-06-15T04:45:17.897Z,12
2017-06-15T04:46:30.810Z,12
2017-06-15T04:47:43.918Z,12
2017-06-15T04:48:56.829Z,12
2017-06-15T04:50:09.248Z,12
2017-06-15T04:51:22.159Z,12
2017-06-15T04:52:35.271Z,12
2017-06-15T04:53:47.691Z,12
2017-06-15T04:55:00.604Z,12
2017-06-15T04:56:13.517Z,12
2017-06-15T04:57:26.327Z,12
2017-06-15T04:58:39.106Z,4
2017-06-15T04:59:51.878Z,16
2017-06-15T05:01:04.651Z,12
2017-06-15T05:02:17.425Z,12
2017-06-15T05:03:30.200Z,12
2017-06-15T05:04:43.178Z,12
2017-06-15T05:05:55.474Z,12
2017-06-15T05:07:08.288Z,12
2017-06-15T05:08:21.072Z,12
2017-06-15T05:09:33.849Z,12
2017-06-15T05:10:46.139Z,12
2017-06-15T05:11:58.430Z,12
2017-06-15T05:13:11.204Z,12
2017-06-15T05:14:23.496Z,12
2017-06-15T05:15:36.470Z,12
2017-06-15T05:16:49.241Z,12
2017-06-15T05:18:02.012Z,8
2017-06-15T05:19:14.784Z,4
2017-06-15T05:20:27.756Z,4
2017-06-15T05:21:40.532Z,12
2017-06-15T05:22:53.305Z,12
2017-06-15T05:24:06.078Z,12
2017-06-15T05:25:18.371Z,12
2017-06-15T05:26:30.663Z,12
2017-06-15T05:27:43.437Z,12
2017-06-15T05:28:55.728Z,12
2017-06-15T05:30:08.017Z,12
2017-06-15T05:31:20.990Z,8
2017-06-15T05:32:33.771Z,12
2017-06-15T05:33:46.544Z,12
2017-06-15T05:34:59.324Z,12
2017-06-15T05:36:11.624Z,4
2017-06-15T05:37:23.432Z,4
2017-06-15T05:38:36.204Z,16
2017-06-15T05:39:48.018Z,12
2017-06-15T05:41:00.793Z,12
2017-06-15T05:42:13.872Z,12
2017-06-15T05:43:26.782Z,12
2017-06-15T05:44:39.203Z,12
2017-06-15T05:45:51.637Z,12
2017-06-15T05:47:04.552Z,12
2017-06-15T05:48:17.468Z,12
2017-06-15T05:49:30.380Z,12
2017-06-15T05:50:43.289Z,12
2017-06-15T05:51:56.204Z,12
2017-06-15T05:53:09.320Z,12
2017-06-15T05:54:21.742Z,12
2017-06-15T05:55:34.653Z,12
2017-06-15T05:56:47.564Z,12
2017-06-15T05:58:00.475Z,12
2017-06-15T05:59:13.386Z,12
2017-06-15T06:00:25.810Z,8
2017-06-15T06:01:38.725Z,12
2017-06-15T06:02:51.676Z,12
2017-06-15T06:04:04.787Z,12
2017-06-15T06:05:17.699Z,12
2017-06-15T06:06:30.613Z,12
2017-06-15T06:07:43.528Z,12
2017-06-15T06:08:56.438Z,12
2017-06-15T06:10:07.386Z,12
2017-06-15T06:11:19.317Z,12
2017-06-15T06:12:32.230Z,12
2017-06-15T06:13:45.141Z,8
2017-06-15T06:14:58.250Z,4
2017-06-15T06:16:11.166Z,12
2017-06-15T06:17:24.077Z,12
2017-06-15T06:18:36.998Z,12
2017-06-15T06:19:49.908Z,12
2017-06-15T06:21:02.818Z,12
2017-06-15T06:22:15.238Z,12
2017-06-15T06:23:27.694Z,12
2017-06-15T06:24:40.604Z,12
2017-06-15T06:25:53.711Z,12
2017-06-15T06:27:06.028Z,12
2017-06-15T06:28:18.798Z,12
2017-06-15T06:29:31.572Z,12
2017-06-15T06:30:44.350Z,12
2017-06-15T06:31:57.327Z,12
2017-06-15T06:33:10.100Z,12
2017-06-15T06:34:22.391Z,12
2017-06-15T06:35:35.173Z,12
2017-06-15T06:36:47.463Z,12
2017-06-15T06:38:00.238Z,12
2017-06-15T06:39:12.528Z,12
2017-06-15T06:40:25.304Z,12
2017-06-15T06:41:38.082Z,12
2017-06-15T06:42:50.573Z,12
2017-06-15T06:44:02.870Z,12
2017-06-15T06:45:15.650Z,12
2017-06-15T06:46:28.423Z,12
2017-06-15T06:47:40.913Z,12
2017-06-15T06:48:53.688Z,12
2017-06-15T06:50:05.497Z,12
2017-06-15T06:51:18.271Z,12
2017-06-15T06:52:31.043Z,12
2017-06-15T06:53:43.815Z,12
2017-06-15T06:54:56.109Z,12
2017-06-15T06:56:08.403Z,12
2017-06-15T06:57:21.177Z,12
2017-06-15T06:58:33.955Z,12
2017-06-15T06:59:46.728Z,12
2017-06-15T07:00:59.021Z,12
2017-06-15T07:02:11.802Z,12
2017-06-15T07:03:24.093Z,12
2017-06-15T07:04:37.070Z,12
2017-06-15T07:05:49.847Z,12
2017-06-15T07:07:02.137Z,12
2017-06-15T07:08:14.911Z,12
2017-06-15T07:09:27.886Z,12
2017-06-15T07:10:40.657Z,12
2017-06-15T07:11:52.515Z,12
2017-06-15T07:13:05.446Z,12
2017-06-15T07:14:18.359Z,12
2017-06-15T07:15:31.299Z,12
2017-06-15T07:16:44.211Z,12
2017-06-15T07:17:57.130Z,12
2017-06-15T07:19:09.063Z,12
2017-06-15T07:20:21.973Z,12
2017-06-15T07:21:34.887Z,12
2017-06-15T07:22:47.799Z,12
2017-06-15T07:24:00.221Z,12
2017-06-15T07:25:13.133Z,12
2017-06-15T07:26:26.245Z,12
2017-06-15T07:27:39.157Z,12
2017-06-15T07:28:52.073Z,12
2017-06-15T07:30:04.502Z,12
2017-06-15T07:31:17.612Z,12
2017-06-15T07:32:29.542Z,4
2017-06-15T07:33:41.968Z,12
2017-06-15T07:34:54.879Z,16
2017-06-15T07:36:07.789Z,12
2017-06-15T07:37:20.702Z,12
2017-06-15T07:38:33.126Z,12
2017-06-15T07:39:46.041Z,12
2017-06-15T07:40:58.465Z,12
2017-06-15T07:42:10.885Z,12
2017-06-15T07:43:22.846Z,12
2017-06-15T07:44:35.268Z,12
2017-06-15T07:45:47.694Z,4
2017-06-15T07:47:00.607Z,12
2017-06-15T07:48:13.230Z,12
2017-06-15T07:49:26.141Z,12
2017-06-15T07:50:38.558Z,12
2017-06-15T07:51:51.470Z,12
2017-06-15T07:53:04.583Z,12
2017-06-15T07:54:17.047Z,12
2017-06-15T07:55:29.962Z,12
2017-06-15T07:56:42.875Z,12
2017-06-15T07:57:55.774Z,12
2017-06-15T07:59:08.670Z,12
2017-06-15T08:00:21.079Z,12
2017-06-15T08:01:33.976Z,12
2017-06-15T08:02:46.375Z,12
2017-06-15T08:03:59.274Z,4
2017-06-15T08:05:11.681Z,12
2017-06-15T08:06:24.578Z,12
2017-06-15T08:07:37.473Z,12
2017-06-15T08:08:50.381Z,12
2017-06-15T08:10:02.493Z,12
2017-06-15T08:11:14.889Z,12
2017-06-15T08:12:27.780Z,12
2017-06-15T08:13:40.189Z,12
2017-06-15T08:14:53.283Z,12
2017-06-15T08:16:05.785Z,12
2017-06-15T08:17:18.319Z,4
2017-06-15T08:18:31.357Z,12
2017-06-15T08:19:44.392Z,12
2017-06-15T08:20:57.624Z,12
2017-06-15T08:22:09.659Z,12
2017-06-15T08:23:22.200Z,12
2017-06-15T08:24:34.737Z,12
2017-06-15T08:25:47.771Z,12
2017-06-15T08:27:00.804Z,12
2017-06-15T08:28:13.840Z,12
2017-06-15T08:29:26.874Z,4
2017-06-15T08:30:40.112Z,12
2017-06-15T08:31:53.147Z,12
2017-06-15T08:33:05.682Z,12
2017-06-15T08:34:18.717Z,12
2017-06-15T08:35:31.251Z,12
2017-06-15T08:36:44.521Z,12
2017-06-15T08:37:57.069Z,12
2017-06-15T08:39:10.104Z,12
2017-06-15T08:40:23.137Z,4
2017-06-15T08:41:36.171Z,12
2017-06-15T08:42:49.222Z,12
2017-06-15T08:44:02.277Z,12
2017-06-15T08:45:14.829Z,12
2017-06-15T08:46:27.877Z,12
2017-06-15T08:47:41.127Z,12
2017-06-15T08:48:54.181Z,12
2017-06-15T08:50:07.232Z,12
2017-06-15T08:51:19.784Z,16
2017-06-15T08:52:32.335Z,8
2017-06-15T08:53:45.659Z,12
2017-06-15T08:54:57.713Z,12
2017-06-15T08:56:10.766Z,12
2017-06-15T08:57:23.819Z,12
2017-06-15T08:58:36.874Z,12
2017-06-15T08:59:49.925Z,12
2017-06-15T09:01:02.978Z,12
2017-06-15T09:02:16.029Z,4
2017-06-15T09:03:28.786Z,12
2017-06-15T09:04:41.835Z,12
2017-06-15T09:05:54.795Z,12
2017-06-15T09:07:07.214Z,12
2017-06-15T09:08:19.635Z,12
2017-06-15T09:09:32.064Z,12
2017-06-15T09:10:44.979Z,12
2017-06-15T09:11:57.398Z,12
2017-06-15T09:13:10.309Z,12
2017-06-15T09:14:23.222Z,12
2017-06-15T09:15:35.178Z,12
2017-06-15T09:16:48.090Z,12
2017-06-15T09:18:00.506Z,12
2017-06-15T09:19:13.414Z,12
2017-06-15T09:20:26.521Z,8
2017-06-15T09:21:38.447Z,4
2017-06-15T09:22:51.362Z,4
2017-06-15T09:24:04.274Z,12
2017-06-15T09:25:16.695Z,12
2017-06-15T09:26:29.116Z,12
2017-06-15T09:27:42.024Z,12
2017-06-15T09:28:54.439Z,12
2017-06-15T09:30:07.350Z,12
2017-06-15T09:31:20.460Z,16
2017-06-15T09:32:33.372Z,12
2017-06-15T09:33:46.327Z,12
2017-06-15T09:34:59.289Z,12
2017-06-15T09:36:12.405Z,12
2017-06-15T09:37:25.317Z,12
2017-06-15T09:38:37.736Z,4
2017-06-15T09:39:50.648Z,12
2017-06-15T09:41:03.561Z,12
2017-06-15T09:42:15.695Z,16
2017-06-15T09:43:28.610Z,20
2017-06-15T09:44:41.527Z,16
2017-06-15T09:45:53.958Z,20
2017-06-15T09:47:06.874Z,20
2017-06-15T09:48:19.790Z,20
2017-06-15T09:49:31.725Z,20
2017-06-15T09:50:44.643Z,24
2017-06-15T09:51:57.564Z,12
2017-06-15T09:53:10.674Z,16
2017-06-15T09:54:23.580Z,20
2017-06-15T09:55:35.999Z,20
2017-06-15T09:56:48.907Z,20
2017-06-15T09:58:00.843Z,20
2017-06-15T09:59:13.767Z,24
2017-06-15T10:00:26.674Z,24
2017-06-15T10:01:39.594Z,24
2017-06-15T10:02:52.500Z,24
2017-06-15T10:04:04.633Z,24
2017-06-15T10:05:17.547Z,24
2017-06-15T10:06:30.459Z,28
2017-06-15T10:07:43.371Z,28
2017-06-15T10:08:56.283Z,32
2017-06-15T10:10:09.195Z,36
2017-06-15T10:11:21.617Z,40
2017-06-15T10:12:34.042Z,52
2017-06-15T10:13:46.953Z,64
2017-06-15T10:14:59.862Z,68
2017-06-15T10:16:12.281Z,68
2017-06-15T10:17:24.698Z,64
2017-06-15T10:18:37.119Z,60
2017-06-15T10:19:50.049Z,60
2017-06-15T10:21:03.164Z,72
2017-06-15T10:22:15.094Z,72
2017-06-15T10:23:27.518Z,92
2017-06-15T10:24:40.429Z,100
2017-06-15T10:25:53.341Z,104
2017-06-15T10:27:06.252Z,104
2017-06-15T10:28:19.162Z,116
2017-06-15T10:29:32.070Z,120
2017-06-15T10:30:45.203Z,128
2017-06-15T10:31:57.628Z,136
2017-06-15T10:33:10.539Z,152
2017-06-15T10:34:23.448Z,152
2017-06-15T10:35:35.873Z,148
2017-06-15T10:36:48.984Z,124
2017-06-15T10:38:01.899Z,116
2017-06-15T10:39:14.321Z,116
2017-06-15T10:40:26.741Z,132
2017-06-15T10:41:39.652Z,152
2017-06-15T10:42:52.562Z,164
2017-06-15T10:44:05.477Z,156
2017-06-15T10:45:18.385Z,160
2017-06-15T10:46:30.809Z,168
2017-06-15T10:47:43.922Z,164
2017-06-15T10:48:56.830Z,156
2017-06-15T10:50:09.256Z,156
2017-06-15T10:51:22.166Z,160
2017-06-15T10:52:35.077Z,196
2017-06-15T10:53:47.992Z,208
2017-06-15T10:55:00.904Z,204
2017-06-15T10:56:13.818Z,240
2017-06-15T10:57:26.223Z,212
2017-06-15T10:58:39.119Z,216
2017-06-15T10:59:52.028Z,228
2017-06-15T11:01:04.431Z,216
2017-06-15T11:02:17.325Z,220
2017-06-15T11:03:29.731Z,244
2017-06-15T11:04:42.627Z,240
2017-06-15T11:05:55.520Z,240
2017-06-15T11:07:08.416Z,224
2017-06-15T11:08:21.316Z,232
2017-06-15T11:09:34.409Z,240
2017-06-15T11:10:47.309Z,236
2017-06-15T11:12:00.205Z,252
2017-06-15T11:13:12.609Z,248
2017-06-15T11:14:25.504Z,280
2017-06-15T11:15:38.105Z,296
2017-06-15T11:16:51.002Z,316
2017-06-15T11:18:03.896Z,340
2017-06-15T11:19:16.796Z,360
2017-06-15T11:20:29.891Z,400
2017-06-15T11:21:42.783Z,416
2017-06-15T11:22:55.202Z,504
2017-06-15T11:24:08.097Z,484
2017-06-15T11:25:20.503Z,424
2017-06-15T11:26:33.396Z,432
2017-06-15T11:27:46.294Z,444
2017-06-15T11:28:58.698Z,412
2017-06-15T11:30:11.593Z,356
2017-06-15T11:31:24.202Z,344
2017-06-15T11:32:36.606Z,364
2017-06-15T11:33:49.011Z,392
2017-06-15T11:35:01.907Z,396
2017-06-15T11:36:14.803Z,428
2017-06-15T11:37:27.739Z,392
2017-06-15T11:38:40.637Z,356
2017-06-15T11:39:53.527Z,360
2017-06-15T11:41:05.440Z,372
2017-06-15T11:42:17.843Z,532
2017-06-15T11:43:30.735Z,340
2017-06-15T11:44:43.633Z,400
2017-06-15T11:45:56.523Z,372
2017-06-15T11:47:09.414Z,328
2017-06-15T11:48:21.817Z,376
2017-06-15T11:49:33.729Z,412
2017-06-15T11:50:46.680Z,400
2017-06-15T11:51:59.086Z,372
2017-06-15T11:53:12.182Z,344
2017-06-15T11:54:25.076Z,376
2017-06-15T11:55:37.978Z,392
2017-06-15T11:56:50.871Z,408
2017-06-15T11:58:03.764Z,384
2017-06-15T11:59:16.658Z,360
2017-06-15T12:00:29.549Z,336
2017-06-15T12:01:41.950Z,320
2017-06-15T12:02:54.359Z,324
2017-06-15T12:04:06.272Z,348
2017-06-15T12:05:19.173Z,348
2017-06-15T12:06:32.075Z,372
2017-06-15T12:07:44.481Z,468
2017-06-15T12:08:57.375Z,464
2017-06-15T12:10:09.778Z,452
2017-06-15T12:11:22.680Z,432
2017-06-15T12:12:35.575Z,488
2017-06-15T12:13:47.978Z,580
2017-06-15T12:15:00.583Z,608
2017-06-15T12:16:13.479Z,648
2017-06-15T12:17:26.372Z,660
2017-06-15T12:18:39.296Z,684
2017-06-15T12:19:52.196Z,620
2017-06-15T12:21:05.291Z,568
2017-06-15T12:22:18.188Z,492
2017-06-15T12:23:31.089Z,480
2017-06-15T12:24:43.982Z,476
2017-06-15T12:25:56.869Z,520
2017-06-15T12:27:09.287Z,564
2017-06-15T12:28:22.204Z,544
2017-06-15T12:29:35.118Z,844
2017-06-15T12:30:48.032Z,1036
2017-06-15T12:32:01.145Z,924
2017-06-15T12:33:13.075Z,2452
2017-06-15T12:34:25.985Z,900
2017-06-15T12:35:38.406Z,1684
2017-06-15T12:36:51.342Z,2212
2017-06-15T12:38:04.254Z,1924
2017-06-15T12:39:17.172Z,1956
2017-06-15T12:40:30.087Z,1936
2017-06-15T12:41:43.203Z,1872
2017-06-15T12:42:56.120Z,1912
2017-06-15T12:44:09.034Z,1936
2017-06-15T12:45:20.971Z,1964
2017-06-15T12:46:33.886Z,2008
2017-06-15T12:47:46.313Z,2000
2017-06-15T12:48:58.738Z,2040
2017-06-15T12:50:11.165Z,1980
2017-06-15T12:51:24.075Z,1952
2017-06-15T12:52:36.502Z,1904
2017-06-15T12:53:49.624Z,1496
2017-06-15T12:55:02.543Z,1964
2017-06-15T12:56:14.990Z,1952
2017-06-15T12:57:27.414Z,2048
2017-06-15T12:58:40.328Z,1868
2017-06-15T12:59:53.336Z,1852
2017-06-15T13:01:06.397Z,1776
2017-06-15T13:02:19.456Z,1780
2017-06-15T13:03:32.513Z,1736
2017-06-15T13:04:45.572Z,1832
2017-06-15T13:05:58.628Z,1440
2017-06-15T13:07:11.182Z,1636
2017-06-15T13:08:23.243Z,1340
2017-06-15T13:09:36.501Z,1664
2017-06-15T13:10:48.556Z,1572
2017-06-15T13:12:01.112Z,1544
2017-06-15T13:13:14.169Z,736
2017-06-15T13:14:27.225Z,708
2017-06-15T13:15:40.281Z,744
2017-06-15T13:16:53.337Z,828
2017-06-15T13:18:05.892Z,824
2017-06-15T13:19:18.949Z,940
2017-06-15T13:20:32.206Z,908
2017-06-15T13:21:45.264Z,840
2017-06-15T13:22:58.322Z,860
2017-06-15T13:24:10.912Z,900
2017-06-15T13:25:23.966Z,820
2017-06-15T13:26:37.021Z,804
2017-06-15T13:27:50.092Z,828
2017-06-15T13:29:03.149Z,812
2017-06-15T13:30:14.708Z,832
2017-06-15T13:31:27.263Z,1108
2017-06-15T13:32:40.255Z,796
2017-06-15T13:33:53.174Z,1392
2017-06-15T13:35:05.597Z,672
2017-06-15T13:36:18.511Z,728
2017-06-15T13:37:31.622Z,1256
2017-06-15T13:38:44.537Z,1060
2017-06-15T13:39:57.452Z,836
2017-06-15T13:41:10.365Z,764
2017-06-15T13:42:22.503Z,724
2017-06-15T13:43:34.926Z,656
2017-06-15T13:44:47.849Z,596
2017-06-15T13:46:00.765Z,624
2017-06-15T13:47:13.678Z,636
2017-06-15T13:48:26.105Z,660
2017-06-15T13:49:39.021Z,688
2017-06-15T13:50:51.444Z,656
2017-06-15T13:52:04.363Z,604
2017-06-15T13:53:17.475Z,624
2017-06-15T13:54:30.392Z,612
2017-06-15T13:55:43.309Z,608
2017-06-15T13:56:56.211Z,600
2017-06-15T13:58:09.108Z,584
2017-06-15T13:59:22.000Z,532
2017-06-15T14:00:34.893Z,444
2017-06-15T14:01:47.788Z,436
2017-06-15T14:03:00.195Z,444
2017-06-15T14:04:13.293Z,480
2017-06-15T14:05:26.188Z,464
2017-06-15T14:06:38.597Z,452
2017-06-15T14:07:51.491Z,424
2017-06-15T14:09:04.390Z,424
2017-06-15T14:10:16.508Z,420
2017-06-15T14:11:29.406Z,444
2017-06-15T14:12:41.813Z,456
2017-06-15T14:13:54.709Z,596
2017-06-15T14:15:07.612Z,840
2017-06-15T14:16:20.019Z,828
2017-06-15T14:17:32.914Z,920
2017-06-15T14:18:45.807Z,792
2017-06-15T14:19:58.711Z,792
2017-06-15T14:21:11.807Z,776
2017-06-15T14:22:24.701Z,832
2017-06-15T14:23:37.597Z,956
2017-06-15T14:24:50.501Z,1068
2017-06-15T14:26:02.420Z,1092
2017-06-15T14:27:14.827Z,1096
2017-06-15T14:28:27.723Z,948
2017-06-15T14:29:40.128Z,904
2017-06-15T14:30:53.026Z,848
2017-06-15T14:32:05.432Z,836
2017-06-15T14:33:18.329Z,780
2017-06-15T14:34:31.221Z,752
2017-06-15T14:35:44.119Z,672
2017-06-15T14:36:57.013Z,740
2017-06-15T14:38:08.930Z,784
2017-06-15T14:39:21.825Z,844
2017-06-15T14:40:34.721Z,884
2017-06-15T14:41:47.627Z,876
2017-06-15T14:43:00.253Z,888
2017-06-15T14:44:13.168Z,868
2017-06-15T14:45:26.085Z,948
2017-06-15T14:46:38.998Z,948
2017-06-15T14:47:51.927Z,812
2017-06-15T14:49:04.843Z,808
2017-06-15T14:50:17.768Z,884
2017-06-15T14:51:30.685Z,900
2017-06-15T14:52:43.604Z,876
2017-06-15T14:53:56.518Z,868
2017-06-15T14:55:09.432Z,844
2017-06-15T14:56:22.352Z,832
2017-06-15T14:57:35.270Z,860
2017-06-15T14:58:47.243Z,880
2017-06-15T14:59:59.179Z,920
2017-06-15T15:01:12.092Z,900
2017-06-15T15:02:24.526Z,960
2017-06-15T15:03:36.951Z,984
2017-06-15T15:04:49.373Z,888
2017-06-15T15:06:02.288Z,852
2017-06-15T15:07:15.202Z,896
2017-06-15T15:08:28.116Z,924
2017-06-15T15:09:40.744Z,884
2017-06-15T15:10:53.657Z,776
2017-06-15T15:12:05.592Z,728
2017-06-15T15:13:18.505Z,696
2017-06-15T15:14:31.422Z,700
2017-06-15T15:15:44.342Z,672
2017-06-15T15:16:57.258Z,656
2017-06-15T15:18:09.687Z,640
2017-06-15T15:19:22.601Z,648
2017-06-15T15:20:35.519Z,536
2017-06-15T15:21:47.453Z,520
2017-06-15T15:23:00.369Z,548
2017-06-15T15:24:13.289Z,476
2017-06-15T15:25:26.207Z,388
2017-06-15T15:26:39.275Z,332
2017-06-15T15:27:51.574Z,312
2017-06-15T15:29:04.355Z,296
2017-06-15T15:30:17.139Z,296
2017-06-15T15:31:29.439Z,276
2017-06-15T15:32:41.741Z,268
2017-06-15T15:33:54.518Z,300
2017-06-15T15:35:07.307Z,384
2017-06-15T15:36:20.094Z,428
2017-06-15T15:37:32.880Z,452
2017-06-15T15:38:45.177Z,440
2017-06-15T15:39:57.961Z,468
2017-06-15T15:41:10.265Z,508
2017-06-15T15:42:23.049Z,520
2017-06-15T15:43:35.830Z,544
2017-06-15T15:44:48.618Z,552
2017-06-15T15:46:00.923Z,596
2017-06-15T15:47:13.703Z,628
2017-06-15T15:48:26.683Z,648
2017-06-15T15:49:39.467Z,624
2017-06-15T15:50:51.800Z,588
2017-06-15T15:52:04.588Z,576
2017-06-15T15:53:17.370Z,640
2017-06-15T15:54:30.153Z,696
2017-06-15T15:55:42.933Z,732
2017-06-15T15:56:55.713Z,792
2017-06-15T15:58:08.495Z,860
2017-06-15T15:59:20.990Z,888
2017-06-15T16:00:33.774Z,832
2017-06-15T16:01:46.558Z,696
2017-06-15T16:02:59.337Z,660
2017-06-15T16:04:12.122Z,648
2017-06-15T16:05:24.424Z,592
2017-06-15T16:06:37.208Z,664
2017-06-15T16:07:49.514Z,692
2017-06-15T16:09:02.304Z,652
2017-06-15T16:10:14.328Z,652
2017-06-15T16:11:27.114Z,668
2017-06-15T16:12:39.997Z,696
2017-06-15T16:13:52.913Z,780
2017-06-15T16:15:05.542Z,752
2017-06-15T16:16:18.466Z,704
2017-06-15T16:17:31.385Z,708
2017-06-15T16:18:44.319Z,724
2017-06-15T16:19:56.785Z,696
2017-06-15T16:21:08.769Z,624
2017-06-15T16:22:21.768Z,588
2017-06-15T16:23:34.764Z,604
2017-06-15T16:24:47.759Z,652
2017-06-15T16:26:00.760Z,656
2017-06-15T16:27:13.258Z,608
2017-06-15T16:28:25.757Z,580
2017-06-15T16:29:38.256Z,596
2017-06-15T16:30:50.258Z,596
2017-06-15T16:32:02.954Z,620
2017-06-15T16:33:15.954Z,632
2017-06-15T16:34:28.949Z,668
2017-06-15T16:35:41.977Z,708
2017-06-15T16:36:54.477Z,752
2017-06-15T16:38:06.975Z,744
2017-06-15T16:39:19.977Z,768
2017-06-15T16:40:32.475Z,712
2017-06-15T16:41:44.972Z,728
2017-06-15T16:42:58.172Z,788
2017-06-15T16:44:11.177Z,856
2017-06-15T16:45:24.173Z,876
2017-06-15T16:46:37.164Z,828
2017-06-15T16:47:50.178Z,744
2017-06-15T16:49:03.172Z,660
2017-06-15T16:50:16.166Z,636
2017-06-15T16:51:29.160Z,552
2017-06-15T16:52:42.153Z,508
2017-06-15T16:53:55.155Z,432
2017-06-15T16:55:07.656Z,360
2017-06-15T16:56:20.649Z,312
2017-06-15T16:57:33.642Z,284
2017-06-15T16:58:46.635Z,284
2017-06-15T16:59:59.134Z,364
2017-06-15T17:01:12.133Z,508
2017-06-15T17:02:24.635Z,576
2017-06-15T17:03:37.181Z,620